createdAt,value
2023-04-17T00:00:02.069Z,11.30
2023-04-17T00:03:14.240Z,11.80
2023-04-17T00:06:19.263Z,12.23
2023-04-17T00:09:23.795Z,12.93
2023-04-17T00:12:28.209Z,11.02
2023-04-17T00:15:32.356Z,13.23
2023-04-17T00:18:36.924Z,12.90
2023-04-17T00:21:41.536Z,13.60
2023-04-17T00:24:46.315Z,13.57
2023-04-17T00:27:51.034Z,11.88
2023-04-17T00:30:55.803Z,12.13
2023-04-17T00:34:01.561Z,12.10
2023-04-17T00:37:06.137Z,11.10
2023-04-17T00:40:11.678Z,14.43
2023-04-17T00:43:16.029Z,11.70
2023-04-17T00:46:21.219Z,12.63
2023-04-17T00:49:26.761Z,11.90
2023-04-17T00:52:31.640Z,13.60
2023-04-17T00:55:39.393Z,10.57
2023-04-17T00:58:44.451Z,12.30
2023-04-17T01:01:55.052Z,12.07
2023-04-17T01:05:00.299Z,15.02
2023-04-17T01:08:05.155Z,13.35
2023-04-17T01:11:11.108Z,10.25
2023-04-17T01:14:15.834Z,12.00
2023-04-17T01:17:21.650Z,12.05
2023-04-17T01:20:30.040Z,12.10
2023-04-17T01:23:50.036Z,13.20
2023-04-17T01:26:54.944Z,12.60
2023-04-17T01:30:01.380Z,13.27
2023-04-17T01:33:08.791Z,11.85
2023-04-17T01:36:14.789Z,11.75
2023-04-17T01:39:19.437Z,13.85
2023-04-17T01:42:24.316Z,13.77
2023-04-17T01:45:28.918Z,15.55
2023-04-17T01:48:34.379Z,15.35
2023-04-17T01:51:39.143Z,13.55
2023-04-17T01:54:43.855Z,12.70
2023-04-17T01:57:49.777Z,14.40
2023-04-17T02:00:54.464Z,13.35
2023-04-17T02:03:59.116Z,17.38
2023-04-17T02:07:04.104Z,15.20
2023-04-17T02:10:09.495Z,15.13
2023-04-17T02:13:14.412Z,13.05
2023-04-17T02:16:23.973Z,13.18
2023-04-17T02:19:28.602Z,13.60
2023-04-17T02:22:33.309Z,16.08
2023-04-17T02:25:37.719Z,14.52
2023-04-17T02:28:45.650Z,14.77
2023-04-17T02:31:50.733Z,12.20
2023-04-17T02:34:56.204Z,14.68
2023-04-17T02:38:01.001Z,12.95
2023-04-17T02:41:06.082Z,12.45
2023-04-17T02:44:11.713Z,11.98
2023-04-17T02:47:16.192Z,13.57
2023-04-17T02:50:21.005Z,12.98
2023-04-17T02:53:38.937Z,14.10
2023-04-17T02:56:43.302Z,13.02
2023-04-17T02:59:48.058Z,16.20
2023-04-17T03:02:52.916Z,13.90
2023-04-17T03:05:57.954Z,14.57
2023-04-17T03:09:03.007Z,16.17
2023-04-17T03:12:07.297Z,14.48
2023-04-17T03:15:11.897Z,14.90
2023-04-17T03:18:16.510Z,15.18
2023-04-17T03:21:21.427Z,13.13
2023-04-17T03:24:26.922Z,11.27
2023-04-17T03:27:31.597Z,11.75
2023-04-17T03:30:35.839Z,12.18
2023-04-17T03:33:45.017Z,14.05
2023-04-17T03:36:49.619Z,11.10
2023-04-17T03:39:55.631Z,12.65
2023-04-17T03:43:00.224Z,13.02
2023-04-17T03:46:05.030Z,14.15
2023-04-17T03:49:10.603Z,12.88
2023-04-17T03:52:16.433Z,14.80
2023-04-17T03:55:22.513Z,16.38
2023-04-17T03:58:27.423Z,13.23
2023-04-17T04:01:32.810Z,14.45
2023-04-17T04:04:48.244Z,11.68
2023-04-17T04:07:52.934Z,13.85
2023-04-17T04:11:10.256Z,14.75
2023-04-17T04:14:16.907Z,16.23
2023-04-17T04:17:24.781Z,13.45
2023-04-17T04:20:30.256Z,13.88
2023-04-17T04:23:49.759Z,15.10
2023-04-17T04:27:05.250Z,14.10
2023-04-17T04:30:13.056Z,17.60
2023-04-17T04:33:21.152Z,17.90
2023-04-17T04:36:29.715Z,17.48
2023-04-17T04:39:47.503Z,16.10
2023-04-17T04:42:53.506Z,15.32
2023-04-17T04:46:06.731Z,16.77
2023-04-17T04:49:16.387Z,15.13
2023-04-17T04:52:20.959Z,15.20
2023-04-17T04:55:27.163Z,14.65
2023-04-17T04:58:34.049Z,12.50
2023-04-17T05:01:40.183Z,12.68
2023-04-17T05:04:46.880Z,14.95
2023-04-17T05:07:54.895Z,16.27
2023-04-17T05:11:03.136Z,15.38
2023-04-17T05:14:07.862Z,16.48
2023-04-17T05:17:14.990Z,17.30
2023-04-17T05:20:20.107Z,18.23
2023-04-17T05:23:29.386Z,16.58
2023-04-17T05:26:34.503Z,16.35
2023-04-17T05:29:40.777Z,17.52
2023-04-17T05:32:46.280Z,15.73
2023-04-17T05:36:04.773Z,16.02
2023-04-17T05:39:12.899Z,13.05
2023-04-17T05:42:18.061Z,16.48
2023-04-17T05:45:25.384Z,15.82
2023-04-17T05:48:31.330Z,16.70
2023-04-17T05:51:35.938Z,16.70
2023-04-17T05:54:40.588Z,17.35
2023-04-17T05:57:46.522Z,16.73
2023-04-17T06:00:52.405Z,19.10
2023-04-17T06:03:58.094Z,19.45
2023-04-17T06:07:06.222Z,20.00
2023-04-17T06:10:13.466Z,17.95
2023-04-17T06:13:18.890Z,16.33
2023-04-17T06:16:26.807Z,18.08
2023-04-17T06:19:31.355Z,16.35
2023-04-17T06:22:44.134Z,17.15
2023-04-17T06:25:48.485Z,18.00
2023-04-17T06:28:53.047Z,18.67
2023-04-17T06:31:57.831Z,19.33
2023-04-17T06:35:03.051Z,19.73
2023-04-17T06:38:24.465Z,17.83
2023-04-17T06:41:29.376Z,18.88
2023-04-17T06:44:33.714Z,20.70
2023-04-17T06:47:38.756Z,19.85
2023-04-17T06:50:43.801Z,20.23
2023-04-17T06:53:48.563Z,17.05
2023-04-17T06:56:53.256Z,18.13
2023-04-17T06:59:57.611Z,21.23
2023-04-17T07:03:02.587Z,19.45
2023-04-17T07:06:08.460Z,19.50
2023-04-17T07:09:13.216Z,23.05
2023-04-17T07:12:18.101Z,21.00
2023-04-17T07:15:23.016Z,29.90
2023-04-17T07:18:29.464Z,27.17
2023-04-17T07:21:33.904Z,25.02
2023-04-17T07:24:38.966Z,26.80
2023-04-17T07:27:43.758Z,24.90
2023-04-17T07:30:48.522Z,25.75
2023-04-17T07:33:53.352Z,22.88
2023-04-17T07:36:57.914Z,24.50
2023-04-17T07:40:04.880Z,19.92
2023-04-17T07:43:09.270Z,28.90
2023-04-17T07:46:14.592Z,25.95
2023-04-17T07:49:19.229Z,23.00
2023-04-17T07:52:24.074Z,27.83
2023-04-17T07:55:29.040Z,25.15
2023-04-17T07:58:35.707Z,26.40
2023-04-17T08:01:41.138Z,23.55
2023-04-17T08:04:46.892Z,20.55
2023-04-17T08:07:51.820Z,19.40
2023-04-17T08:10:56.450Z,24.45
2023-04-17T08:14:02.589Z,21.50
2023-04-17T08:17:07.762Z,24.92
2023-04-17T08:20:12.157Z,24.40
2023-04-17T08:23:16.969Z,24.25
2023-04-17T08:26:22.586Z,23.50
2023-04-17T08:29:27.742Z,24.05
2023-04-17T08:32:45.765Z,25.50
2023-04-17T08:35:52.075Z,24.38
2023-04-17T08:38:56.716Z,23.00
2023-04-17T08:42:07.800Z,19.38
2023-04-17T08:45:13.737Z,18.98
2023-04-17T08:48:17.916Z,20.60
2023-04-17T08:51:26.327Z,25.30
2023-04-17T08:54:36.489Z,25.15
2023-04-17T08:58:04.655Z,25.98
2023-04-17T09:01:11.551Z,24.08
2023-04-17T09:04:43.088Z,28.83
2023-04-17T09:07:51.291Z,23.02
2023-04-17T09:10:56.529Z,27.77
2023-04-17T09:14:01.370Z,26.48
2023-04-17T09:17:05.968Z,26.02
2023-04-17T09:20:14.364Z,22.77
2023-04-17T09:23:20.038Z,24.05
2023-04-17T09:26:32.006Z,21.77
2023-04-17T09:30:01.029Z,23.17
2023-04-17T09:33:08.785Z,22.05
2023-04-17T09:36:22.207Z,22.27
2023-04-17T09:39:27.130Z,26.15
2023-04-17T09:42:31.915Z,22.73
2023-04-17T09:45:40.273Z,20.42
2023-04-17T09:48:46.025Z,23.05
2023-04-17T09:51:51.215Z,20.20
2023-04-17T09:54:56.272Z,20.15
2023-04-17T09:58:07.543Z,22.25
2023-04-17T10:01:12.905Z,17.27
2023-04-17T10:04:19.391Z,15.82
2023-04-17T10:07:24.128Z,16.52
2023-04-17T10:10:36.280Z,16.67
2023-04-17T10:13:45.072Z,16.52
2023-04-17T10:16:50.536Z,16.98
2023-04-17T10:19:55.945Z,14.60
2023-04-17T10:23:01.297Z,14.48
2023-04-17T10:26:24.883Z,14.65
2023-04-17T10:29:59.796Z,16.10
2023-04-17T10:33:13.593Z,17.75
2023-04-17T10:36:43.220Z,16.67
2023-04-17T10:39:56.602Z,17.42
2023-04-17T10:43:14.884Z,17.52
2023-04-17T10:46:19.463Z,16.00
2023-04-17T10:49:25.298Z,16.27
2023-04-17T10:52:32.914Z,15.65
2023-04-17T10:55:50.388Z,14.15
2023-04-17T10:59:03.471Z,15.45
2023-04-17T11:02:08.339Z,14.25
2023-04-17T11:05:13.216Z,13.95
2023-04-17T11:08:18.076Z,14.60
2023-04-17T11:11:35.272Z,16.40
2023-04-17T11:14:48.612Z,15.75
2023-04-17T11:17:54.358Z,15.55
2023-04-17T11:20:59.197Z,14.23
2023-04-17T11:24:04.400Z,12.65
2023-04-17T11:27:08.875Z,14.60
2023-04-17T11:30:23.301Z,14.75
2023-04-17T11:33:28.289Z,12.68
2023-04-17T11:36:33.155Z,13.50
2023-04-17T11:39:41.630Z,13.73
2023-04-17T11:42:46.286Z,14.30
2023-04-17T11:46:01.687Z,12.43
2023-04-17T11:49:07.382Z,13.10
2023-04-17T11:52:12.032Z,14.13
2023-04-17T11:55:16.928Z,14.73
2023-04-17T11:58:21.533Z,13.63
2023-04-17T12:01:27.955Z,14.52
2023-04-17T12:04:34.824Z,12.75
2023-04-17T12:07:39.838Z,13.52
2023-04-17T12:10:45.407Z,13.55
2023-04-17T12:13:51.234Z,13.00
2023-04-17T12:16:55.861Z,12.75
2023-04-17T12:20:04.064Z,13.63
2023-04-17T12:23:09.305Z,13.30
2023-04-17T12:26:14.594Z,13.50
2023-04-17T12:29:26.532Z,11.50
2023-04-17T12:32:39.540Z,13.23
2023-04-17T12:35:44.625Z,12.15
2023-04-17T12:38:49.290Z,13.40
2023-04-17T12:41:53.603Z,10.48
2023-04-17T12:44:58.496Z,12.07
2023-04-17T12:48:04.485Z,12.10
2023-04-17T12:51:09.054Z,11.23
2023-04-17T12:54:14.099Z,9.55
2023-04-17T12:57:18.911Z,10.07
2023-04-17T13:00:23.463Z,10.38
2023-04-17T13:03:28.227Z,11.85
2023-04-17T13:06:33.091Z,11.23
2023-04-17T13:09:37.898Z,11.05
2023-04-17T13:12:42.538Z,10.45
2023-04-17T13:15:48.727Z,10.57
2023-04-17T13:18:53.507Z,10.32
2023-04-17T13:21:58.105Z,11.32
2023-04-17T13:25:04.262Z,10.88
2023-04-17T13:28:08.765Z,10.80
2023-04-17T13:31:14.142Z,10.98
2023-04-17T13:34:19.662Z,9.68
2023-04-17T13:37:25.688Z,7.65
2023-04-17T13:40:31.155Z,10.77
2023-04-17T13:43:35.670Z,10.65
2023-04-17T13:46:41.159Z,9.27
2023-04-17T13:49:46.484Z,8.75
2023-04-17T13:52:53.101Z,8.68
2023-04-17T13:55:58.497Z,9.48
2023-04-17T13:59:05.196Z,8.60
2023-04-17T14:02:09.874Z,9.38
2023-04-17T14:05:15.550Z,7.70
2023-04-17T14:08:20.127Z,10.35
2023-04-17T14:11:25.369Z,7.53
2023-04-17T14:14:30.270Z,7.50
2023-04-17T14:17:38.242Z,10.48
2023-04-17T14:20:43.366Z,9.68
2023-04-17T14:23:50.717Z,10.40
2023-04-17T14:26:57.618Z,10.73
2023-04-17T14:30:02.833Z,9.90
2023-04-17T14:33:08.645Z,8.82
2023-04-17T14:36:13.481Z,10.40
2023-04-17T14:39:19.681Z,9.98
2023-04-17T14:42:24.207Z,10.65
2023-04-17T14:45:29.060Z,10.63
2023-04-17T14:48:41.110Z,10.57
2023-04-17T14:51:56.668Z,11.02
2023-04-17T14:55:01.228Z,8.02
2023-04-17T14:58:06.184Z,7.30
2023-04-17T15:01:11.447Z,9.95
2023-04-17T15:04:16.426Z,9.30
2023-04-17T15:07:21.291Z,8.18
2023-04-17T15:10:26.610Z,8.25
2023-04-17T15:13:31.958Z,9.63
2023-04-17T15:16:36.593Z,6.90
2023-04-17T15:19:41.061Z,6.72
2023-04-17T15:22:52.402Z,7.82
2023-04-17T15:25:58.163Z,8.48
2023-04-17T15:29:03.760Z,8.02
2023-04-17T15:32:08.370Z,8.93
2023-04-17T15:35:13.225Z,6.70
2023-04-17T15:38:19.083Z,7.50
2023-04-17T15:41:24.101Z,7.65
2023-04-17T15:44:29.306Z,6.78
2023-04-17T15:47:33.768Z,8.02
2023-04-17T15:50:38.400Z,7.80
2023-04-17T15:53:43.128Z,6.88
2023-04-17T15:56:47.550Z,7.35
2023-04-17T15:59:52.663Z,7.55
2023-04-17T16:02:57.318Z,6.05
2023-04-17T16:06:02.507Z,4.90
2023-04-17T16:09:07.275Z,5.45
2023-04-17T16:12:12.261Z,5.10
2023-04-17T16:15:18.115Z,4.85
2023-04-17T16:18:23.110Z,4.00
2023-04-17T16:21:28.679Z,3.85
2023-04-17T16:24:33.121Z,4.38
2023-04-17T16:27:39.274Z,4.03
2023-04-17T16:30:44.067Z,4.40
2023-04-17T16:33:49.785Z,4.63
2023-04-17T16:36:54.320Z,4.53
2023-04-17T16:40:05.321Z,5.15
2023-04-17T16:43:13.100Z,5.43
2023-04-17T16:46:24.076Z,5.43
2023-04-17T16:49:35.332Z,5.60
2023-04-17T16:52:41.025Z,4.97
2023-04-17T16:55:45.788Z,5.93
2023-04-17T16:58:50.622Z,5.57
2023-04-17T17:01:56.457Z,5.40
2023-04-17T17:05:02.100Z,5.40
2023-04-17T17:08:07.018Z,5.95
2023-04-17T17:11:11.574Z,5.47
2023-04-17T17:14:16.313Z,5.15
2023-04-17T17:17:21.342Z,4.95
2023-04-17T17:20:26.774Z,4.97
2023-04-17T17:23:32.210Z,4.40
2023-04-17T17:26:37.328Z,4.75
2023-04-17T17:29:42.105Z,5.57
2023-04-17T17:32:46.824Z,4.68
2023-04-17T17:35:53.262Z,4.32
2023-04-17T17:38:57.850Z,4.90
2023-04-17T17:42:08.485Z,5.05
2023-04-17T17:45:13.334Z,5.53
2023-04-17T17:48:20.226Z,4.82
2023-04-17T17:51:25.364Z,5.32
2023-04-17T17:54:30.002Z,5.20
2023-04-17T17:57:46.019Z,5.22
2023-04-17T18:00:53.149Z,4.90
2023-04-17T18:03:57.736Z,5.00
2023-04-17T18:07:03.708Z,4.18
2023-04-17T18:10:09.213Z,5.43
2023-04-17T18:13:13.724Z,5.13
2023-04-17T18:16:18.181Z,5.10
2023-04-17T18:19:22.972Z,4.40
2023-04-17T18:22:27.370Z,3.85
2023-04-17T18:25:32.112Z,4.70
2023-04-17T18:28:36.817Z,3.92
2023-04-17T18:31:42.395Z,4.95
2023-04-17T18:34:49.269Z,4.93
2023-04-17T18:37:53.644Z,4.82
2023-04-17T18:40:59.394Z,5.20
2023-04-17T18:44:03.896Z,4.43
2023-04-17T18:47:08.883Z,4.63
2023-04-17T18:50:13.498Z,4.43
2023-04-17T18:53:18.395Z,4.25
2023-04-17T18:56:26.500Z,4.18
2023-04-17T18:59:31.451Z,4.40
2023-04-17T19:02:37.071Z,4.30
2023-04-17T19:05:41.624Z,4.03
2023-04-17T19:08:46.493Z,4.20
2023-04-17T19:11:52.124Z,4.75
2023-04-17T19:15:00.099Z,4.35
2023-04-17T19:18:06.670Z,4.65
2023-04-17T19:21:11.800Z,4.82
2023-04-17T19:24:16.896Z,4.68
2023-04-17T19:27:22.815Z,4.00
2023-04-17T19:30:27.504Z,3.70
2023-04-17T19:33:33.344Z,5.50
2023-04-17T19:36:38.115Z,4.90
2023-04-17T19:39:42.893Z,4.50
2023-04-17T19:42:47.585Z,4.13
2023-04-17T19:45:52.321Z,5.00
2023-04-17T19:48:56.857Z,4.85
2023-04-17T19:52:01.485Z,4.60
2023-04-17T19:55:09.583Z,4.15
2023-04-17T19:58:14.366Z,4.53
2023-04-17T20:01:19.342Z,5.15
2023-04-17T20:04:24.364Z,4.90
2023-04-17T20:07:29.485Z,5.60
2023-04-17T20:10:33.825Z,4.95
2023-04-17T20:13:38.987Z,4.72
2023-04-17T20:16:45.352Z,4.93
2023-04-17T20:19:49.825Z,5.10
2023-04-17T20:22:54.296Z,5.25
2023-04-17T20:25:58.690Z,5.53
2023-04-17T20:29:03.296Z,5.88
2023-04-17T20:32:07.705Z,5.30
2023-04-17T20:35:12.452Z,5.10
2023-04-17T20:38:16.981Z,4.40
2023-04-17T20:41:21.408Z,4.90
2023-04-17T20:44:25.847Z,4.60
2023-04-17T20:47:30.713Z,4.80
2023-04-17T20:50:35.652Z,5.10
2023-04-17T20:53:40.323Z,5.75
2023-04-17T20:56:44.937Z,4.97
2023-04-17T20:59:49.510Z,5.30
2023-04-17T21:02:54.224Z,4.78
2023-04-17T21:05:59.770Z,5.82
2023-04-17T21:09:05.140Z,4.93
2023-04-17T21:12:09.942Z,4.20
2023-04-17T21:15:14.781Z,4.10
2023-04-17T21:18:19.412Z,4.80
2023-04-17T21:21:24.312Z,5.78
2023-04-17T21:24:29.136Z,4.68
2023-04-17T21:27:33.381Z,5.38
2023-04-17T21:30:38.302Z,4.65
2023-04-17T21:33:42.946Z,5.00
2023-04-17T21:36:49.040Z,4.18
2023-04-17T21:39:54.632Z,5.20
2023-04-17T21:43:01.000Z,5.70
2023-04-17T21:46:10.434Z,5.10
2023-04-17T21:49:14.962Z,4.90
2023-04-17T21:52:19.685Z,5.78
2023-04-17T21:55:24.518Z,5.57
2023-04-17T21:58:29.695Z,4.82
2023-04-17T22:01:34.256Z,4.53
2023-04-17T22:04:38.976Z,4.18
2023-04-17T22:07:53.694Z,5.05
2023-04-17T22:10:59.176Z,6.50
2023-04-17T22:14:03.870Z,6.95
2023-04-17T22:17:08.190Z,7.65
2023-04-17T22:21:08.699Z,6.82
2023-04-17T22:24:32.129Z,5.90
2023-04-17T22:28:14.333Z,5.97
2023-04-17T22:32:33.980Z,5.75
2023-04-17T22:36:53.666Z,6.75
2023-04-17T22:41:13.525Z,8.07
2023-04-17T22:44:55.154Z,7.28
2023-04-17T22:48:57.936Z,6.35
2023-04-17T22:52:21.754Z,7.82
2023-04-17T22:56:03.847Z,7.80
2023-04-17T23:00:25.344Z,8.48
2023-04-17T23:04:07.288Z,8.88
2023-04-17T23:07:30.277Z,8.10
2023-04-17T23:10:35.409Z,8.43
2023-04-17T23:13:40.089Z,8.50
2023-04-17T23:16:44.846Z,6.38
2023-04-17T23:19:49.492Z,6.43
2023-04-17T23:22:53.834Z,6.93
2023-04-17T23:25:58.542Z,7.18
2023-04-17T23:29:03.153Z,7.93
2023-04-17T23:32:08.475Z,8.02
2023-04-17T23:35:13.137Z,7.72
2023-04-17T23:38:17.992Z,7.95
2023-04-17T23:41:22.928Z,8.02
2023-04-17T23:44:27.762Z,9.20
2023-04-17T23:47:32.385Z,9.15
2023-04-17T23:50:37.133Z,9.00
2023-04-17T23:53:41.784Z,8.93
2023-04-17T23:56:46.078Z,6.78
2023-04-17T23:59:50.895Z,6.50
